Time,TemperatureF,DewpointF,PressureIn,WindDirection,WindDirectionDegrees,WindSpeedMPH,WindSpeedGustMPH,Humidity,HourlyPrecipIn,Conditions,Clouds,dailyrainin,SoftwareType,DateUTC
2013-06-03 00:02:00,47.5,41.3,29.92,NNE,27,0.0,0.0,79,0.00,,---,0.00,VWS V14.01,2013-06-03 07:02:00,
2013-06-03 00:07:00,47.5,41.3,29.92,NE,55,0.0,0.0,79,0.00,,---,0.00,VWS V14.01,2013-06-03 07:07:00,
2013-06-03 00:13:00,47.3,41.5,29.92,NE,55,0.0,3.6,80,0.00,,---,0.00,VWS V14.01,2013-06-03 07:13:00,
2013-06-03 00:18:00,47.1,41.3,29.92,ESE,114,3.1,5.4,80,0.00,,---,0.00,VWS V14.01,2013-06-03 07:18:00,
2013-06-03 00:23:00,46.9,41.1,29.92,ESE,114,3.1,3.6,80,0.00,,---,0.00,VWS V14.01,2013-06-03 07:23:00,
2013-06-03 00:28:00,46.8,40.9,29.92,ESE,120,3.6,3.6,80,0.00,,---,0.00,VWS V14.01,2013-06-03 07:28:00,
2013-06-03 00:33:00,46.6,41.1,29.92,East,82,0.0,3.6,81,0.00,,---,0.00,VWS V14.01,2013-06-03 07:33:00,
2013-06-03 00:38:00,46.6,41.1,29.92,NE,37,0.0,3.6,81,0.00,,---,0.00,VWS V14.01,2013-06-03 07:38:00,
2013-06-03 00:43:00,46.4,40.9,29.92,ESE,103,0.0,0.0,81,0.00,,---,0.00,VWS V14.01,2013-06-03 07:43:00,
2013-06-03 00:49:00,46.4,41.2,29.92,ENE,77,2.7,4.0,82,0.00,,---,0.00,VWS V14.01,2013-06-03 07:49:00,
2013-06-03 00:54:00,46.2,41.0,29.89,East,100,0.0,0.0,82,0.00,,---,0.00,VWS V14.01,2013-06-03 07:54:00,
2013-06-03 00:59:00,46.0,41.2,29.89,NNE,12,2.7,4.0,83,0.00,,---,0.00,VWS V14.01,2013-06-03 07:59:00,
2013-06-03 01:04:00,46.0,41.2,29.89,North,10,0.0,5.4,83,0.00,,---,0.00,VWS V14.01,2013-06-03 08:04:00,
2013-06-03 01:09:00,45.9,41.0,29.89,ENE,69,0.0,5.4,83,0.00,,---,0.00,VWS V14.01,2013-06-03 08:09:00,
2013-06-03 01:14:00,45.9,41.0,29.89,North,9,0.0,3.6,83,0.00,,---,0.00,VWS V14.01,2013-06-03 08:14:00,
2013-06-03 01:19:00,45.7,40.8,29.89,West,277,4.0,4.9,83,0.00,,---,0.00,VWS V14.01,2013-06-03 08:19:00,
2013-06-03 01:24:00,45.7,41.1,29.89,SSE,154,0.0,4.0,84,0.00,,---,0.00,VWS V14.01,2013-06-03 08:24:00,
2013-06-03 01:29:00,45.5,41.0,29.89,ENE,78,3.1,5.4,84,0.00,,---,0.00,VWS V14.01,2013-06-03 08:29:00,
2013-06-03 01:34:00,45.5,41.0,29.89,NE,35,0.0,4.0,84,0.00,,---,0.00,VWS V14.01,2013-06-03 08:34:00,
2013-06-03 01:40:00,45.3,40.8,29.89,NE,42,0.0,4.0,84,0.00,,---,0.00,VWS V14.01,2013-06-03 08:40:00,
2013-06-03 01:45:00,45.3,40.8,29.89,East,92,2.7,5.8,84,0.00,,---,0.00,VWS V14.01,2013-06-03 08:45:00,
2013-06-03 01:50:00,45.1,40.9,29.89,SSE,156,2.7,3.1,85,0.00,,---,0.00,VWS V14.01,2013-06-03 08:50:00,
2013-06-03 01:55:00,45.0,40.7,29.89,SSE,156,0.0,3.1,85,0.00,,---,0.00,VWS V14.01,2013-06-03 08:55:00,
2013-06-03 02:00:00,45.0,40.7,29.89,SE,137,3.6,4.9,85,0.00,,---,0.00,VWS V14.01,2013-06-03 09:00:00,
2013-06-03 02:05:00,45.0,40.7,29.89,WNW,283,3.6,5.4,85,0.00,,---,0.00,VWS V14.01,2013-06-03 09:05:00,
2013-06-03 02:10:00,45.0,40.7,29.89,ENE,73,3.1,3.6,85,0.00,,---,0.00,VWS V14.01,2013-06-03 09:10:00,
2013-06-03 02:15:00,45.0,40.7,29.89,East,88,2.7,6.3,85,0.00,,---,0.00,VWS V14.01,2013-06-03 09:15:00,
2013-06-03 02:20:00,45.0,40.7,29.89,East,91,0.0,0.0,85,0.00,,---,0.00,VWS V14.01,2013-06-03 09:20:00,
2013-06-03 02:25:00,44.8,40.5,29.89,East,92,0.0,4.0,85,0.00,,---,0.00,VWS V14.01,2013-06-03 09:25:00,
2013-06-03 02:31:00,44.6,40.7,29.89,North,0,4.0,5.4,86,0.00,,---,0.00,VWS V14.01,2013-06-03 09:31:00,
2013-06-03 02:36:00,44.6,40.7,29.89,NE,44,2.2,5.4,86,0.00,,---,0.00,VWS V14.01,2013-06-03 09:36:00,
2013-06-03 02:41:00,44.4,40.5,29.89,NE,36,0.0,0.0,86,0.00,,---,0.00,VWS V14.01,2013-06-03 09:41:00,
2013-06-03 02:46:00,44.2,40.3,29.89,ENE,71,3.1,3.6,86,0.00,,---,0.00,VWS V14.01,2013-06-03 09:46:00,
2013-06-03 02:51:00,44.2,40.3,29.89,ESE,123,3.6,5.4,86,0.00,,---,0.00,VWS V14.01,2013-06-03 09:51:00,
2013-06-03 02:57:00,44.1,40.2,29.89,SE,138,6.7,6.7,86,0.00,,---,0.00,VWS V14.01,2013-06-03 09:57:00,
2013-06-03 03:02:00,44.8,41.2,29.89,SE,134,6.3,8.7,87,0.00,,---,0.00,VWS V14.01,2013-06-03 10:02:00,
2013-06-03 03:07:00,45.1,41.5,29.89,SSE,162,0.0,8.7,87,0.00,,---,0.00,VWS V14.01,2013-06-03 10:07:00,
2013-06-03 03:12:00,45.1,41.2,29.89,East,79,0.0,3.1,86,0.00,,---,0.00,VWS V14.01,2013-06-03 10:12:00,
2013-06-03 03:17:00,45.1,41.2,29.89,ENE,57,3.6,5.8,86,0.00,,---,0.00,VWS V14.01,2013-06-03 10:17:00,
2013-06-03 03:22:00,44.8,40.9,29.89,ESE,118,3.1,5.4,86,0.00,,---,0.00,VWS V14.01,2013-06-03 10:22:00,
2013-06-03 03:27:00,44.6,40.7,29.89,South,179,3.1,6.7,86,0.00,,---,0.00,VWS V14.01,2013-06-03 10:27:00,
2013-06-03 03:32:00,44.2,40.3,29.89,ENE,76,0.0,4.0,86,0.00,,---,0.00,VWS V14.01,2013-06-03 10:32:00,
2013-06-03 03:37:00,44.1,40.2,29.89,ENE,60,2.7,4.0,86,0.00,,---,0.00,VWS V14.01,2013-06-03 10:37:00,
2013-06-03 03:42:00,43.7,39.8,29.89,SE,131,3.1,3.6,86,0.00,,---,0.00,VWS V14.01,2013-06-03 10:42:00,
2013-06-03 03:47:00,43.5,39.6,29.89,ENE,68,0.0,3.6,86,0.00,,---,0.00,VWS V14.01,2013-06-03 10:47:00,
2013-06-03 03:52:00,43.3,39.4,29.89,SSE,162,0.0,4.9,86,0.00,,---,0.00,VWS V14.01,2013-06-03 10:52:00,
2013-06-03 03:57:00,43.3,39.7,29.89,East,87,3.1,9.2,87,0.00,,---,0.00,VWS V14.01,2013-06-03 10:57:00,
2013-06-03 04:02:00,43.2,39.6,29.89,SSE,156,6.3,8.1,87,0.00,,---,0.00,VWS V14.01,2013-06-03 11:02:00,
2013-06-03 04:07:00,43.2,39.6,29.89,NNE,22,2.2,8.1,87,0.00,,---,0.00,VWS V14.01,2013-06-03 11:07:00,
2013-06-03 04:12:00,43.0,39.4,29.89,ESE,116,3.6,5.8,87,0.00,,---,0.00,VWS V14.01,2013-06-03 11:12:00,
2013-06-03 04:19:00,42.8,39.2,29.89,ESE,114,0.0,5.8,87,0.00,,---,0.00,VWS V14.01,2013-06-03 11:19:00,
2013-06-03 04:25:00,42.8,39.2,29.89,ENE,62,4.0,4.0,87,0.00,,---,0.00,VWS V14.01,2013-06-03 11:25:00,
2013-06-03 04:31:00,42.6,39.3,29.89,NNE,20,0.0,2.7,88,0.00,,---,0.00,VWS V14.01,2013-06-03 11:31:00,
2013-06-03 04:36:00,42.4,39.1,29.89,NE,39,0.0,2.7,88,0.00,,---,0.00,VWS V14.01,2013-06-03 11:36:00,
2013-06-03 04:41:00,42.4,39.1,29.89,ENE,62,0.0,0.0,88,0.00,,---,0.00,VWS V14.01,2013-06-03 11:41:00,
2013-06-03 04:46:00,42.3,39.0,29.89,East,101,3.1,4.0,88,0.00,,---,0.00,VWS V14.01,2013-06-03 11:46:00,
2013-06-03 04:51:00,42.1,38.8,29.89,North,11,4.0,4.0,88,0.00,,---,0.00,VWS V14.01,2013-06-03 11:51:00,
2013-06-03 04:57:00,42.1,38.8,29.89,ENE,70,2.7,4.9,88,0.00,,---,0.00,VWS V14.01,2013-06-03 11:57:00,
2013-06-03 05:02:00,42.1,38.8,29.89,NNE,30,2.7,3.6,88,0.00,,---,0.00,VWS V14.01,2013-06-03 12:02:00,
2013-06-03 05:07:00,42.1,38.8,29.89,NE,34,3.1,6.3,88,0.00,,---,0.00,VWS V14.01,2013-06-03 12:07:00,
2013-06-03 05:12:00,41.9,38.6,29.89,ENE,76,4.0,4.0,88,0.00,,---,0.00,VWS V14.01,2013-06-03 12:12:00,
2013-06-03 05:17:00,41.9,38.6,29.89,SSE,162,10.5,10.5,88,0.00,,---,0.00,VWS V14.01,2013-06-03 12:17:00,
2013-06-03 05:22:00,42.1,39.1,29.89,East,95,3.1,4.9,89,0.00,,---,0.00,VWS V14.01,2013-06-03 12:22:00,
2013-06-03 05:27:00,41.9,38.9,29.89,East,91,3.1,4.9,89,0.00,,---,0.00,VWS V14.01,2013-06-03 12:27:00,
2013-06-03 05:33:00,41.7,38.7,29.89,NNE,29,0.0,2.2,89,0.00,,---,0.00,VWS V14.01,2013-06-03 12:33:00,
2013-06-03 05:38:00,41.7,38.7,29.89,NNE,29,0.0,2.2,89,0.00,,---,0.00,VWS V14.01,2013-06-03 12:38:00,
2013-06-03 05:43:00,41.7,38.7,29.89,NNE,29,0.0,0.0,89,0.00,,---,0.00,VWS V14.01,2013-06-03 12:43:00,
2013-06-03 05:48:00,41.5,38.5,29.89,ENE,71,0.0,0.0,89,0.00,,---,0.00,VWS V14.01,2013-06-03 12:48:00,
2013-06-03 05:53:00,41.5,38.5,29.89,ENE,71,0.0,0.0,89,0.00,,---,0.00,VWS V14.01,2013-06-03 12:53:00,
2013-06-03 05:58:00,41.5,38.5,29.89,NNE,29,0.0,0.0,89,0.00,,---,0.00,VWS V14.01,2013-06-03 12:58:00,
2013-06-03 06:04:00,41.5,38.5,29.92,NNE,29,3.6,3.6,89,0.00,,---,0.00,VWS V14.01,2013-06-03 13:04:00,
2013-06-03 06:09:00,41.5,38.5,29.92,NNE,29,0.0,3.6,89,0.00,,---,0.00,VWS V14.01,2013-06-03 13:09:00,
2013-06-03 06:14:00,41.5,38.5,29.92,NNE,14,3.6,4.0,89,0.00,,---,0.00,VWS V14.01,2013-06-03 13:14:00,
2013-06-03 06:19:00,41.5,38.5,29.92,South,173,5.4,5.4,89,0.00,,---,0.00,VWS V14.01,2013-06-03 13:19:00,
2013-06-03 06:25:00,41.5,38.5,29.92,SSE,161,2.2,5.8,89,0.00,,---,0.00,VWS V14.01,2013-06-03 13:25:00,
2013-06-03 06:30:00,41.7,39.0,29.92,NNE,31,3.1,3.6,90,0.00,,---,0.00,VWS V14.01,2013-06-03 13:30:00,
2013-06-03 06:36:00,42.1,39.4,29.92,NNE,32,0.0,3.6,90,0.00,,---,0.00,VWS V14.01,2013-06-03 13:36:00,
2013-06-03 06:41:00,42.1,39.4,29.92,ENE,64,0.0,0.0,90,0.00,,---,0.00,VWS V14.01,2013-06-03 13:41:00,
2013-06-03 06:46:00,42.1,39.4,29.92,East,88,0.0,3.6,90,0.00,,---,0.00,VWS V14.01,2013-06-03 13:46:00,
2013-06-03 06:51:00,42.3,39.5,29.92,East,88,0.0,0.0,90,0.00,,---,0.00,VWS V14.01,2013-06-03 13:51:00,
2013-06-03 06:56:00,42.4,39.7,29.92,ENE,61,2.7,4.0,90,0.00,,---,0.00,VWS V14.01,2013-06-03 13:56:00,
2013-06-03 07:02:00,42.6,39.9,29.92,ENE,61,0.0,0.0,90,0.00,,---,0.00,VWS V14.01,2013-06-03 14:02:00,
2013-06-03 07:07:00,42.8,40.1,29.92,ENE,61,0.0,0.0,90,0.00,,---,0.00,VWS V14.01,2013-06-03 14:07:00,
2013-06-03 07:12:00,43.2,40.4,29.92,ENE,61,0.0,0.0,90,0.00,,---,0.00,VWS V14.01,2013-06-03 14:12:00,
2013-06-03 07:17:00,43.5,40.8,29.92,ENE,61,0.0,0.0,90,0.00,,---,0.00,VWS V14.01,2013-06-03 14:17:00,
2013-06-03 07:22:00,43.7,41.0,29.92,ENE,61,0.0,0.0,90,0.00,,---,0.00,VWS V14.01,2013-06-03 14:22:00,
2013-06-03 07:27:00,44.2,41.5,29.92,SSE,149,2.7,6.7,90,0.00,,---,0.00,VWS V14.01,2013-06-03 14:27:00,
2013-06-03 07:32:00,44.8,42.0,29.92,SE,144,3.1,3.1,90,0.00,,---,0.00,VWS V14.01,2013-06-03 14:32:00,
2013-06-03 07:37:00,45.3,42.6,29.92,ESE,112,0.0,3.6,90,0.00,,---,0.00,VWS V14.01,2013-06-03 14:37:00,
2013-06-03 07:44:00,46.0,43.3,29.92,ESE,112,0.0,0.0,90,0.00,,---,0.00,VWS V14.01,2013-06-03 14:44:00,
2013-06-03 07:49:00,46.4,43.6,29.92,SSE,164,0.0,4.9,90,0.00,,---,0.00,VWS V14.01,2013-06-03 14:49:00,
2013-06-03 07:54:00,46.9,44.2,29.92,SSE,164,0.0,0.0,90,0.00,,---,0.00,VWS V14.01,2013-06-03 14:54:00,
2013-06-03 07:59:00,47.3,44.5,29.92,SSE,163,0.0,0.0,90,0.00,,---,0.00,VWS V14.01,2013-06-03 14:59:00,
2013-06-03 08:04:00,47.8,45.0,29.92,SSE,163,0.0,0.0,90,0.00,,---,0.00,VWS V14.01,2013-06-03 15:04:00,
2013-06-03 08:09:00,48.2,45.1,29.92,SSE,164,0.0,3.6,89,0.00,,---,0.00,VWS V14.01,2013-06-03 15:09:00,
2013-06-03 08:14:00,48.7,45.7,29.92,SE,146,2.2,4.9,89,0.00,,---,0.00,VWS V14.01,2013-06-03 15:14:00,
2013-06-03 08:20:00,49.1,46.0,29.92,SSE,156,3.1,4.9,89,0.00,,---,0.00,VWS V14.01,2013-06-03 15:20:00,
2013-06-03 08:25:00,49.6,46.5,29.92,SSE,162,0.0,2.7,89,0.00,,---,0.00,VWS V14.01,2013-06-03 15:25:00,
2013-06-03 08:30:00,50.2,46.8,29.92,SSE,160,0.0,0.0,88,0.00,,---,0.00,VWS V14.01,2013-06-03 15:30:00,
2013-06-03 08:35:00,50.9,47.2,29.92,WNW,287,0.0,6.3,87,0.00,,---,0.00,VWS V14.01,2013-06-03 15:35:00,
2013-06-03 08:40:00,51.6,47.6,29.92,WNW,287,0.0,0.0,86,0.00,,---,0.00,VWS V14.01,2013-06-03 15:40:00,
2013-06-03 08:45:00,52.2,47.8,29.92,WNW,287,0.0,0.0,85,0.00,,---,0.00,VWS V14.01,2013-06-03 15:45:00,
2013-06-03 08:50:00,52.7,48.0,29.92,SE,139,0.0,3.6,84,0.00,,---,0.00,VWS V14.01,2013-06-03 15:50:00,
2013-06-03 08:55:00,53.1,48.0,29.92,SE,139,0.0,3.6,83,0.00,,---,0.00,VWS V14.01,2013-06-03 15:55:00,
2013-06-03 09:00:00,53.8,47.8,29.92,East,96,0.0,0.0,80,0.00,,---,0.00,VWS V14.01,2013-06-03 16:00:00,
2013-06-03 09:05:00,54.3,48.0,29.92,ENE,77,0.0,0.0,79,0.00,,---,0.00,VWS V14.01,2013-06-03 16:05:00,
2013-06-03 09:10:00,54.7,48.0,29.92,SE,146,2.2,2.2,78,0.00,,---,0.00,VWS V14.01,2013-06-03 16:10:00,
2013-06-03 09:15:00,55.0,47.3,29.92,SSW,198,3.6,4.9,75,0.00,,---,0.00,VWS V14.01,2013-06-03 16:15:00,
2013-06-03 09:21:00,55.4,47.3,29.89,SW,233,0.0,3.1,74,0.00,,---,0.00,VWS V14.01,2013-06-03 16:21:00,
2013-06-03 09:26:00,55.6,47.1,29.89,WSW,248,2.2,4.0,73,0.00,,---,0.00,VWS V14.01,2013-06-03 16:26:00,
2013-06-03 09:31:00,55.8,47.2,29.89,WSW,248,0.0,0.0,73,0.00,,---,0.00,VWS V14.01,2013-06-03 16:31:00,
2013-06-03 09:36:00,55.9,47.1,29.89,South,191,0.0,4.0,72,0.00,,---,0.00,VWS V14.01,2013-06-03 16:36:00,
2013-06-03 09:41:00,56.3,47.0,29.89,ENE,73,2.7,3.6,71,0.00,,---,0.00,VWS V14.01,2013-06-03 16:41:00,
2013-06-03 09:46:00,56.8,45.6,29.89,SE,137,0.0,3.6,66,0.00,,---,0.00,VWS V14.01,2013-06-03 16:46:00,
2013-06-03 09:51:00,57.2,46.0,29.89,SW,217,0.0,0.0,66,0.00,,---,0.00,VWS V14.01,2013-06-03 16:51:00,
2013-06-03 09:57:00,57.6,45.5,29.89,South,176,3.6,5.4,64,0.00,,---,0.00,VWS V14.01,2013-06-03 16:57:00,
2013-06-03 10:02:00,57.9,45.4,29.89,SW,232,0.0,4.9,63,0.00,,---,0.00,VWS V14.01,2013-06-03 17:02:00,
2013-06-03 10:07:00,58.1,46.0,29.89,SW,232,0.0,4.9,64,0.00,,---,0.00,VWS V14.01,2013-06-03 17:07:00,
2013-06-03 10:12:00,58.5,46.8,29.89,ESE,111,2.7,3.6,65,0.00,,---,0.00,VWS V14.01,2013-06-03 17:12:00,
2013-06-03 10:17:00,58.8,45.4,29.89,SSW,199,3.1,3.6,61,0.00,,---,0.00,VWS V14.01,2013-06-03 17:17:00,
2013-06-03 10:22:00,59.2,45.8,29.89,ESE,104,0.0,0.0,61,0.00,,---,0.00,VWS V14.01,2013-06-03 17:22:00,
2013-06-03 10:27:00,59.7,45.8,29.89,WSW,254,3.1,5.4,60,0.00,,---,0.00,VWS V14.01,2013-06-03 17:27:00,
2013-06-03 10:33:00,60.1,44.8,29.89,SSE,160,0.0,3.1,57,0.00,,---,0.00,VWS V14.01,2013-06-03 17:33:00,
2013-06-03 10:38:00,60.4,45.2,29.89,NNW,338,2.7,4.5,57,0.00,,---,0.00,VWS V14.01,2013-06-03 17:38:00,
2013-06-03 10:43:00,61.0,45.2,29.89,SE,124,0.0,0.0,56,0.00,,---,0.00,VWS V14.01,2013-06-03 17:43:00,
2013-06-03 10:49:00,61.3,44.6,29.89,West,279,4.0,4.0,54,0.00,,---,0.00,VWS V14.01,2013-06-03 17:49:00,
2013-06-03 10:54:00,61.7,45.4,29.89,WNW,299,3.1,5.8,55,0.00,,---,0.00,VWS V14.01,2013-06-03 17:54:00,
2013-06-03 10:59:00,62.1,45.2,29.89,West,275,0.0,5.8,54,0.00,,---,0.00,VWS V14.01,2013-06-03 17:59:00,
2013-06-03 11:04:00,62.4,44.1,29.89,SSW,204,0.0,5.4,51,0.00,,---,0.00,VWS V14.01,2013-06-03 18:04:00,
2013-06-03 11:09:00,63.0,44.6,29.89,SW,229,0.0,5.4,51,0.00,,---,0.00,VWS V14.01,2013-06-03 18:09:00,
2013-06-03 11:14:00,63.5,44.5,29.89,NNE,20,0.0,3.6,50,0.00,,---,0.00,VWS V14.01,2013-06-03 18:14:00,
2013-06-03 11:19:00,64.4,44.3,29.89,SE,130,5.4,5.4,48,0.00,,---,0.00,VWS V14.01,2013-06-03 18:19:00,
2013-06-03 11:24:00,65.1,42.7,29.89,ENE,64,0.0,5.8,44,0.00,,---,0.00,VWS V14.01,2013-06-03 18:24:00,
2013-06-03 11:29:00,65.7,43.8,29.89,SSW,212,2.7,5.8,45,0.00,,---,0.00,VWS V14.01,2013-06-03 18:29:00,
2013-06-03 11:34:00,66.4,45.0,29.86,NNW,345,0.0,4.0,46,0.00,,---,0.00,VWS V14.01,2013-06-03 18:34:00,
2013-06-03 11:39:00,66.9,44.9,29.86,SE,145,2.7,4.0,45,0.00,,---,0.00,VWS V14.01,2013-06-03 18:39:00,
2013-06-03 11:44:00,67.8,44.5,29.86,SW,232,4.0,4.9,43,0.00,,---,0.00,VWS V14.01,2013-06-03 18:44:00,
2013-06-03 11:49:00,68.4,45.0,29.86,SW,226,2.7,4.9,43,0.00,,---,0.00,VWS V14.01,2013-06-03 18:49:00,
2013-06-03 11:54:00,68.7,43.5,29.86,NW,304,2.7,3.6,40,0.00,,---,0.00,VWS V14.01,2013-06-03 18:54:00,
2013-06-03 11:59:00,69.1,43.1,29.86,NNW,334,4.0,5.8,39,0.00,,---,0.00,VWS V14.01,2013-06-03 18:59:00,
2013-06-03 12:04:00,69.4,42.1,29.86,SSE,159,5.8,7.6,37,0.00,,---,0.00,VWS V14.01,2013-06-03 19:04:00,
2013-06-03 12:09:00,69.8,42.4,29.86,ESE,109,0.0,8.3,37,0.00,,---,0.00,VWS V14.01,2013-06-03 19:09:00,
2013-06-03 12:15:00,70.0,41.8,29.86,West,278,5.4,6.3,36,0.00,,---,0.00,VWS V14.01,2013-06-03 19:15:00,
2013-06-03 12:20:00,70.2,41.3,29.86,SSE,162,5.4,8.3,35,0.00,,---,0.00,VWS V14.01,2013-06-03 19:20:00,
2013-06-03 12:25:00,70.3,42.2,29.86,SW,225,3.1,8.3,36,0.00,,---,0.00,VWS V14.01,2013-06-03 19:25:00,
2013-06-03 12:30:00,70.3,42.2,29.86,SW,220,4.5,4.5,36,0.00,,---,0.00,VWS V14.01,2013-06-03 19:30:00,
2013-06-03 12:35:00,70.5,41.6,29.86,WSW,240,0.0,4.5,35,0.00,,---,0.00,VWS V14.01,2013-06-03 19:35:00,
2013-06-03 12:40:00,71.1,42.8,29.86,SSW,195,4.9,4.9,36,0.00,,---,0.00,VWS V14.01,2013-06-03 19:40:00,
2013-06-03 12:45:00,71.4,42.4,29.86,South,174,0.0,4.9,35,0.00,,---,0.00,VWS V14.01,2013-06-03 19:45:00,
2013-06-03 12:50:00,71.2,42.2,29.86,WSW,249,4.0,4.0,35,0.00,,---,0.00,VWS V14.01,2013-06-03 19:50:00,
2013-06-03 12:55:00,70.3,40.7,29.86,West,275,0.0,8.1,34,0.00,,---,0.00,VWS V14.01,2013-06-03 19:55:00,
2013-06-03 13:00:00,70.0,39.6,29.86,West,259,5.8,6.3,33,0.00,,---,0.00,VWS V14.01,2013-06-03 20:00:00,
2013-06-03 13:05:00,69.4,39.9,29.86,SW,214,8.3,8.3,34,0.00,,---,0.00,VWS V14.01,2013-06-03 20:05:00,
2013-06-03 13:10:00,69.4,39.9,29.86,NNW,340,4.0,5.8,34,0.00,,---,0.00,VWS V14.01,2013-06-03 20:10:00,
2013-06-03 13:15:00,69.4,39.9,29.86,WSW,245,2.7,7.6,34,0.00,,---,0.00,VWS V14.01,2013-06-03 20:15:00,
2013-06-03 13:20:00,70.0,40.3,29.86,SW,216,5.4,5.4,34,0.00,,---,0.00,VWS V14.01,2013-06-03 20:20:00,
2013-06-03 13:25:00,71.1,42.0,29.86,West,264,0.0,5.8,35,0.00,,---,0.00,VWS V14.01,2013-06-03 20:25:00,
2013-06-03 13:31:00,71.8,41.2,29.86,SSE,167,3.1,8.1,33,0.00,,---,0.00,VWS V14.01,2013-06-03 20:31:00,
2013-06-03 13:36:00,72.0,41.3,29.86,SSW,211,0.0,8.1,33,0.00,,---,0.00,VWS V14.01,2013-06-03 20:36:00,
2013-06-03 13:41:00,72.5,41.8,29.86,ESE,109,3.1,6.3,33,0.00,,---,0.00,VWS V14.01,2013-06-03 20:41:00,
2013-06-03 13:46:00,72.7,42.0,29.86,SE,134,3.6,7.6,33,0.00,,---,0.00,VWS V14.01,2013-06-03 20:46:00,
2013-06-03 13:51:00,73.2,42.4,29.86,SSE,163,3.1,3.6,33,0.00,,---,0.00,VWS V14.01,2013-06-03 20:51:00,
2013-06-03 13:56:00,73.2,41.6,29.86,SSW,212,5.8,6.3,32,0.00,,---,0.00,VWS V14.01,2013-06-03 20:56:00,
2013-06-03 14:01:00,73.2,41.6,29.86,North,9,3.6,7.2,32,0.00,,---,0.00,VWS V14.01,2013-06-03 21:01:00,
2013-06-03 14:06:00,73.4,41.8,29.86,SW,223,2.2,7.2,32,0.00,,---,0.00,VWS V14.01,2013-06-03 21:06:00,
2013-06-03 14:11:00,73.6,41.9,29.86,SSE,167,2.7,8.3,32,0.00,,---,0.00,VWS V14.01,2013-06-03 21:11:00,
2013-06-03 14:17:00,73.8,42.1,29.86,SSE,150,7.6,9.2,32,0.00,,---,0.00,VWS V14.01,2013-06-03 21:17:00,
2013-06-03 14:22:00,73.6,41.1,29.86,North,11,3.6,8.1,31,0.00,,---,0.00,VWS V14.01,2013-06-03 21:22:00,
2013-06-03 14:28:00,73.2,41.6,29.86,ESE,123,2.7,8.7,32,0.00,,---,0.00,VWS V14.01,2013-06-03 21:28:00,
2013-06-03 14:33:00,72.9,41.3,29.86,SW,234,4.0,5.8,32,0.00,,---,0.00,VWS V14.01,2013-06-03 21:33:00,
2013-06-03 14:38:00,72.7,41.2,29.86,ENE,59,5.8,11.0,32,0.00,,---,0.00,VWS V14.01,2013-06-03 21:38:00,
2013-06-03 14:43:00,72.7,41.2,29.86,South,170,0.0,4.9,32,0.00,,---,0.00,VWS V14.01,2013-06-03 21:43:00,
2013-06-03 14:48:00,72.7,41.2,29.86,SW,217,2.2,8.1,32,0.00,,---,0.00,VWS V14.01,2013-06-03 21:48:00,
2013-06-03 14:53:00,72.7,41.2,29.86,South,189,10.1,10.1,32,0.00,,---,0.00,VWS V14.01,2013-06-03 21:53:00,
2013-06-03 14:58:00,72.1,40.7,29.86,SW,235,5.8,10.5,32,0.00,,---,0.00,VWS V14.01,2013-06-03 21:58:00,
2013-06-03 15:03:00,71.8,40.4,29.86,SSE,167,6.3,9.6,32,0.00,,---,0.00,VWS V14.01,2013-06-03 22:03:00,
2013-06-03 15:08:00,71.6,40.2,29.86,SE,145,6.7,10.1,32,0.00,,---,0.00,VWS V14.01,2013-06-03 22:08:00,
2013-06-03 15:13:00,71.2,39.9,29.86,North,353,5.4,5.4,32,0.00,,---,0.00,VWS V14.01,2013-06-03 22:13:00,
2013-06-03 15:19:00,71.2,39.9,29.86,SSE,150,3.1,11.0,32,0.00,,---,0.00,VWS V14.01,2013-06-03 22:19:00,
2013-06-03 15:24:00,71.1,40.5,29.86,SE,128,4.0,6.3,33,0.00,,---,0.00,VWS V14.01,2013-06-03 22:24:00,
2013-06-03 15:29:00,70.9,39.6,29.86,West,274,3.6,8.1,32,0.00,,---,0.00,VWS V14.01,2013-06-03 22:29:00,
2013-06-03 15:34:00,70.9,39.6,29.86,SSE,167,3.1,6.3,32,0.00,,---,0.00,VWS V14.01,2013-06-03 22:34:00,
2013-06-03 15:39:00,70.9,39.6,29.86,South,191,3.6,6.3,32,0.00,,---,0.00,VWS V14.01,2013-06-03 22:39:00,
2013-06-03 15:44:00,71.1,39.7,29.86,WSW,256,3.6,6.7,32,0.00,,---,0.00,VWS V14.01,2013-06-03 22:44:00,
2013-06-03 15:50:00,71.1,39.7,29.86,SE,143,2.7,10.1,32,0.00,,---,0.00,VWS V14.01,2013-06-03 22:50:00,
2013-06-03 15:55:00,70.9,39.6,29.86,NW,308,4.0,6.3,32,0.00,,---,0.00,VWS V14.01,2013-06-03 22:55:00,
2013-06-03 16:00:00,70.7,39.4,29.86,NW,314,0.0,6.7,32,0.00,,---,0.00,VWS V14.01,2013-06-03 23:00:00,
2013-06-03 16:05:00,70.9,39.6,29.86,SSW,192,5.4,8.3,32,0.00,,---,0.00,VWS V14.01,2013-06-03 23:05:00,
2013-06-03 16:10:00,70.5,39.3,29.86,SSE,157,2.7,8.3,32,0.00,,---,0.00,VWS V14.01,2013-06-03 23:10:00,
2013-06-03 16:15:00,70.5,39.3,29.86,WSW,246,0.0,4.9,32,0.00,,---,0.00,VWS V14.01,2013-06-03 23:15:00,
2013-06-03 16:20:00,70.3,39.1,29.86,North,0,0.0,0.0,32,0.00,,---,0.00,VWS V14.01,2013-06-03 23:20:00,
2013-06-03 16:25:00,70.3,39.1,29.86,SW,221,3.6,8.3,32,0.00,,---,0.00,VWS V14.01,2013-06-03 23:25:00,
2013-06-03 16:30:00,70.3,39.1,29.86,ESE,109,0.0,0.0,32,0.00,,---,0.00,VWS V14.01,2013-06-03 23:30:00,
2013-06-03 16:35:00,70.3,39.1,29.86,SW,232,5.8,5.8,32,0.00,,---,0.00,VWS V14.01,2013-06-03 23:35:00,
2013-06-03 16:40:00,70.5,39.3,29.86,SSE,151,2.2,6.3,32,0.00,,---,0.00,VWS V14.01,2013-06-03 23:40:00,
2013-06-03 16:45:00,70.5,39.3,29.86,WSW,243,5.8,6.3,32,0.00,,---,0.00,VWS V14.01,2013-06-03 23:45:00,
2013-06-03 16:50:00,70.5,39.3,29.86,SSW,203,3.6,3.6,32,0.00,,---,0.00,VWS V14.01,2013-06-03 23:50:00,
2013-06-03 16:55:00,70.3,39.1,29.86,East,97,2.2,11.0,32,0.00,,---,0.00,VWS V14.01,2013-06-03 23:55:00,
2013-06-03 17:01:00,70.2,39.0,29.86,WSW,238,3.6,5.8,32,0.00,,---,0.00,VWS V14.01,2013-06-04 00:01:00,
2013-06-03 17:06:00,70.2,39.0,29.86,SSW,202,4.0,7.6,32,0.00,,---,0.00,VWS V14.01,2013-06-04 00:06:00,
2013-06-03 17:11:00,70.0,38.8,29.86,WSW,237,5.4,5.4,32,0.00,,---,0.00,VWS V14.01,2013-06-04 00:11:00,
2013-06-03 17:16:00,70.0,38.8,29.86,South,179,2.7,7.6,32,0.00,,---,0.00,VWS V14.01,2013-06-04 00:16:00,
2013-06-03 17:21:00,69.8,38.6,29.86,SW,219,2.7,4.9,32,0.00,,---,0.00,VWS V14.01,2013-06-04 00:21:00,
2013-06-03 17:26:00,69.8,38.6,29.86,ESE,110,4.0,11.0,32,0.00,,---,0.00,VWS V14.01,2013-06-04 00:26:00,
2013-06-03 17:31:00,69.6,38.5,29.86,SW,235,4.9,5.8,32,0.00,,---,0.00,VWS V14.01,2013-06-04 00:31:00,
2013-06-03 17:37:00,69.6,39.3,29.86,NW,317,2.7,8.3,33,0.00,,---,0.00,VWS V14.01,2013-06-04 00:37:00,
2013-06-03 17:42:00,69.4,39.1,29.86,SW,236,4.0,7.2,33,0.00,,---,0.00,VWS V14.01,2013-06-04 00:42:00,
2013-06-03 17:47:00,69.3,39.0,29.86,ENE,59,2.2,7.6,33,0.00,,---,0.00,VWS V14.01,2013-06-04 00:47:00,
2013-06-03 17:52:00,69.3,39.0,29.86,South,172,2.7,6.3,33,0.00,,---,0.00,VWS V14.01,2013-06-04 00:52:00,
2013-06-03 17:57:00,69.1,38.8,29.86,SE,138,6.3,7.6,33,0.00,,---,0.00,VWS V14.01,2013-06-04 00:57:00,
2013-06-03 18:02:00,68.9,38.6,29.86,South,182,5.8,8.3,33,0.00,,---,0.00,VWS V14.01,2013-06-04 01:02:00,
2013-06-03 18:07:00,68.9,38.6,29.86,WSW,244,5.8,8.3,33,0.00,,---,0.00,VWS V14.01,2013-06-04 01:07:00,
2013-06-03 18:12:00,68.7,39.2,29.86,SE,145,4.0,8.1,34,0.00,,---,0.00,VWS V14.01,2013-06-04 01:12:00,
2013-06-03 18:17:00,68.5,39.1,29.86,West,279,3.1,8.1,34,0.00,,---,0.00,VWS V14.01,2013-06-04 01:17:00,
2013-06-03 18:22:00,68.7,39.2,29.86,West,259,4.9,7.2,34,0.00,,---,0.00,VWS V14.01,2013-06-04 01:22:00,
2013-06-03 18:27:00,68.7,40.0,29.86,SW,227,5.8,8.1,35,0.00,,---,0.00,VWS V14.01,2013-06-04 01:27:00,
2013-06-03 18:32:00,68.5,39.8,29.86,SW,220,0.0,8.1,35,0.00,,---,0.00,VWS V14.01,2013-06-04 01:32:00,
2013-06-03 18:37:00,68.4,39.7,29.86,South,171,5.8,8.1,35,0.00,,---,0.00,VWS V14.01,2013-06-04 01:37:00,
2013-06-03 18:42:00,68.0,40.1,29.86,SSW,206,3.6,6.3,36,0.00,,---,0.00,VWS V14.01,2013-06-04 01:42:00,
2013-06-03 18:47:00,67.8,39.9,29.86,NNW,332,2.2,9.2,36,0.00,,---,0.00,VWS V14.01,2013-06-04 01:47:00,
2013-06-03 18:52:00,67.6,40.5,29.86,East,88,3.6,5.8,37,0.00,,---,0.00,VWS V14.01,2013-06-04 01:52:00,
2013-06-03 18:58:00,67.5,40.3,29.86,ESE,120,7.2,7.2,37,0.00,,---,0.00,VWS V14.01,2013-06-04 01:58:00,
2013-06-03 19:03:00,67.3,40.8,29.86,North,357,2.7,5.8,38,0.00,,---,0.00,VWS V14.01,2013-06-04 02:03:00,
2013-06-03 19:08:00,67.1,40.7,29.89,SW,214,0.0,5.8,38,0.00,,---,0.00,VWS V14.01,2013-06-04 02:08:00,
2013-06-03 19:13:00,66.7,41.0,29.89,WSW,257,4.9,8.3,39,0.00,,---,0.00,VWS V14.01,2013-06-04 02:13:00,
2013-06-03 19:18:00,66.6,40.9,29.89,West,269,2.7,8.3,39,0.00,,---,0.00,VWS V14.01,2013-06-04 02:18:00,
2013-06-03 19:23:00,66.2,41.2,29.89,SW,234,0.0,4.0,40,0.00,,---,0.00,VWS V14.01,2013-06-04 02:23:00,
2013-06-03 19:29:00,66.0,41.7,29.89,NNW,337,0.0,5.4,41,0.00,,---,0.00,VWS V14.01,2013-06-04 02:29:00,
2013-06-03 19:34:00,65.7,42.0,29.89,WNW,297,0.0,5.8,42,0.00,,---,0.00,VWS V14.01,2013-06-04 02:34:00,
2013-06-03 19:39:00,65.3,42.2,29.89,WSW,251,3.6,6.3,43,0.00,,---,0.00,VWS V14.01,2013-06-04 02:39:00,
2013-06-03 19:44:00,64.9,41.9,29.89,SW,225,3.1,4.9,43,0.00,,---,0.00,VWS V14.01,2013-06-04 02:44:00,
2013-06-03 19:49:00,64.6,42.2,29.89,ENE,78,0.0,5.4,44,0.00,,---,0.00,VWS V14.01,2013-06-04 02:49:00,
2013-06-03 19:54:00,63.9,42.7,29.89,NNW,344,0.0,0.0,46,0.00,,---,0.00,VWS V14.01,2013-06-04 02:54:00,
2013-06-03 19:59:00,63.5,42.9,29.89,NNW,344,0.0,0.0,47,0.00,,---,0.00,VWS V14.01,2013-06-04 02:59:00,
2013-06-03 20:04:00,63.0,43.0,29.89,NNW,344,0.0,0.0,48,0.00,,---,0.00,VWS V14.01,2013-06-04 03:04:00,
2013-06-03 20:09:00,62.6,43.2,29.89,NNW,344,0.0,0.0,49,0.00,,---,0.00,VWS V14.01,2013-06-04 03:09:00,
2013-06-03 20:14:00,62.2,43.4,29.89,NNW,344,0.0,0.0,50,0.00,,---,0.00,VWS V14.01,2013-06-04 03:14:00,
2013-06-03 20:20:00,61.9,43.1,29.92,North,357,0.0,0.0,50,0.00,,---,0.00,VWS V14.01,2013-06-04 03:20:00,
2013-06-03 20:25:00,61.5,43.2,29.92,North,357,0.0,0.0,51,0.00,,---,0.00,VWS V14.01,2013-06-04 03:25:00,
2013-06-03 20:30:00,61.2,43.4,29.92,North,357,0.0,0.0,52,0.00,,---,0.00,VWS V14.01,2013-06-04 03:30:00,
2013-06-03 20:35:00,60.6,43.4,29.92,North,357,0.0,0.0,53,0.00,,---,0.00,VWS V14.01,2013-06-04 03:35:00,
2013-06-03 20:40:00,60.3,43.6,29.92,North,357,0.0,0.0,54,0.00,,---,0.00,VWS V14.01,2013-06-04 03:40:00,
2013-06-03 20:45:00,59.9,43.7,29.92,ESE,115,0.0,0.0,55,0.00,,---,0.00,VWS V14.01,2013-06-04 03:45:00,
2013-06-03 20:50:00,59.5,43.8,29.92,ESE,115,0.0,0.0,56,0.00,,---,0.00,VWS V14.01,2013-06-04 03:50:00,
2013-06-03 20:55:00,59.2,44.0,29.92,ESE,115,0.0,0.0,57,0.00,,---,0.00,VWS V14.01,2013-06-04 03:55:00,
2013-06-03 21:00:00,59.0,43.8,29.92,NE,50,0.0,0.0,57,0.00,,---,0.00,VWS V14.01,2013-06-04 04:00:00,
2013-06-03 21:01:00,59.0,43.8,29.92,NE,50,0.0,0.0,57,0.00,,---,0.00,VWS V14.01,2013-06-04 04:01:00,
2013-06-03 21:02:00,58.8,44.1,29.92,NE,50,0.0,0.0,58,0.00,,---,0.00,VWS V14.01,2013-06-04 04:02:00,
2013-06-03 21:04:00,58.8,44.1,29.92,NE,50,0.0,0.0,58,0.00,,---,0.00,VWS V14.01,2013-06-04 04:04:00,
2013-06-03 21:09:00,58.3,44.0,29.92,NE,50,0.0,0.0,59,0.00,,---,0.00,VWS V14.01,2013-06-04 04:09:00,
2013-06-03 21:14:00,58.1,43.9,29.92,NE,50,0.0,0.0,59,0.00,,---,0.00,VWS V14.01,2013-06-04 04:14:00,
2013-06-03 21:19:00,57.9,44.1,29.92,NE,50,0.0,0.0,60,0.00,,---,0.00,VWS V14.01,2013-06-04 04:19:00,
2013-06-03 21:24:00,57.6,43.8,29.92,NE,50,0.0,0.0,60,0.00,,---,0.00,VWS V14.01,2013-06-04 04:24:00,
2013-06-03 21:29:00,57.2,43.9,29.92,NE,50,0.0,0.0,61,0.00,,---,0.00,VWS V14.01,2013-06-04 04:29:00,
2013-06-03 21:34:00,57.0,44.1,29.92,NE,50,0.0,0.0,62,0.00,,---,0.00,VWS V14.01,2013-06-04 04:34:00,
2013-06-03 21:39:00,56.8,44.0,29.92,NE,50,0.0,0.0,62,0.00,,---,0.00,VWS V14.01,2013-06-04 04:39:00,
2013-06-03 21:44:00,56.7,44.2,29.92,NE,50,0.0,0.0,63,0.00,,---,0.00,VWS V14.01,2013-06-04 04:44:00,
2013-06-03 21:49:00,56.3,44.3,29.95,NE,50,0.0,0.0,64,0.00,,---,0.00,VWS V14.01,2013-06-04 04:49:00,
2013-06-03 21:55:00,56.1,44.1,29.95,North,0,0.0,0.0,64,0.00,,---,0.00,VWS V14.01,2013-06-04 04:55:00,
2013-06-03 22:00:00,55.9,44.4,29.95,North,357,0.0,0.0,65,0.00,,---,0.00,VWS V14.01,2013-06-04 05:00:00,
2013-06-03 22:05:00,55.8,44.6,29.95,ENE,70,0.0,0.0,66,0.00,,---,0.00,VWS V14.01,2013-06-04 05:05:00,
2013-06-03 22:10:00,55.4,44.2,29.95,NNE,28,0.0,0.0,66,0.00,,---,0.00,VWS V14.01,2013-06-04 05:10:00,
2013-06-03 22:15:00,55.0,44.7,29.95,ESE,105,0.0,0.0,68,0.00,,---,0.00,VWS V14.01,2013-06-04 05:15:00,
2013-06-03 22:20:00,54.9,44.5,29.95,NE,47,2.7,2.7,68,0.00,,---,0.00,VWS V14.01,2013-06-04 05:20:00,
2013-06-03 22:25:00,54.7,44.3,29.95,NE,56,0.0,3.1,68,0.00,,---,0.00,VWS V14.01,2013-06-04 05:25:00,
2013-06-03 22:30:00,54.5,44.2,29.95,NE,42,0.0,0.0,68,0.00,,---,0.00,VWS V14.01,2013-06-04 05:30:00,
2013-06-03 22:35:00,54.3,44.4,29.95,NE,42,0.0,0.0,69,0.00,,---,0.00,VWS V14.01,2013-06-04 05:35:00,
2013-06-03 22:40:00,54.1,44.2,29.95,NE,46,0.0,0.0,69,0.00,,---,0.00,VWS V14.01,2013-06-04 05:40:00,
2013-06-03 22:45:00,53.8,44.2,29.95,NE,46,0.0,0.0,70,0.00,,---,0.00,VWS V14.01,2013-06-04 05:45:00,
2013-06-03 22:50:00,53.6,44.1,29.95,NNE,32,0.0,0.0,70,0.00,,---,0.00,VWS V14.01,2013-06-04 05:50:00,
2013-06-03 22:56:00,53.2,44.1,29.95,East,81,0.0,0.0,71,0.00,,---,0.00,VWS V14.01,2013-06-04 05:56:00,
2013-06-03 23:01:00,52.9,43.8,29.95,East,79,0.0,0.0,71,0.00,,---,0.00,VWS V14.01,2013-06-04 06:01:00,
2013-06-03 23:06:00,52.7,43.9,29.95,East,79,0.0,0.0,72,0.00,,---,0.00,VWS V14.01,2013-06-04 06:06:00,
2013-06-03 23:11:00,52.5,43.8,29.95,NE,34,0.0,0.0,72,0.00,,---,0.00,VWS V14.01,2013-06-04 06:11:00,
2013-06-03 23:16:00,52.3,43.6,29.95,NE,34,0.0,0.0,72,0.00,,---,0.00,VWS V14.01,2013-06-04 06:16:00,
2013-06-03 23:21:00,52.2,43.4,29.95,ESE,103,0.0,0.0,72,0.00,,---,0.00,VWS V14.01,2013-06-04 06:21:00,
2013-06-03 23:26:00,52.0,43.6,29.95,East,98,0.0,0.0,73,0.00,,---,0.00,VWS V14.01,2013-06-04 06:26:00,
2013-06-03 23:31:00,51.8,43.4,29.95,East,98,0.0,0.0,73,0.00,,---,0.00,VWS V14.01,2013-06-04 06:31:00,
2013-06-03 23:36:00,51.6,43.6,29.95,ENE,74,0.0,0.0,74,0.00,,---,0.00,VWS V14.01,2013-06-04 06:36:00,
2013-06-03 23:42:00,51.4,43.4,29.95,ENE,74,0.0,0.0,74,0.00,,---,0.00,VWS V14.01,2013-06-04 06:42:00,
2013-06-03 23:47:00,51.1,43.1,29.95,ENE,74,0.0,0.0,74,0.00,,---,0.00,VWS V14.01,2013-06-04 06:47:00,
2013-06-03 23:52:00,50.9,43.3,29.95,ENE,74,0.0,0.0,75,0.00,,---,0.00,VWS V14.01,2013-06-04 06:52:00,
2013-06-03 23:57:00,50.7,43.1,29.95,NE,49,0.0,0.0,75,0.00,,---,0.00,VWS V14.01,2013-06-04 06:57:00,